createdAt,value
2023-02-07T00:00:16.734Z,81.01
2023-02-07T00:02:48.275Z,80.61
2023-02-07T00:05:18.194Z,80.47
2023-02-07T00:07:48.285Z,81.57
2023-02-07T00:10:17.947Z,81.41
2023-02-07T00:12:48.025Z,81.17
2023-02-07T00:15:17.814Z,81.54
2023-02-07T00:17:47.925Z,80.93
2023-02-07T00:20:17.831Z,81.21
2023-02-07T00:22:47.691Z,81.50
2023-02-07T00:25:17.554Z,81.96
2023-02-07T00:27:47.503Z,81.48
2023-02-07T00:30:18.589Z,81.48
2023-02-07T00:32:48.668Z,80.46
2023-02-07T00:35:18.885Z,80.74
2023-02-07T00:37:48.683Z,81.34
2023-02-07T00:40:20.078Z,81.11
2023-02-07T00:42:49.941Z,81.61
2023-02-07T00:45:19.759Z,81.61
2023-02-07T00:47:49.523Z,81.80
2023-02-07T00:50:19.126Z,81.51
2023-02-07T00:52:48.894Z,81.40
2023-02-07T00:55:18.427Z,81.17
2023-02-07T00:57:48.369Z,80.73
2023-02-07T01:00:18.160Z,80.36
2023-02-07T01:02:48.947Z,81.07
2023-02-07T01:05:18.776Z,80.70
2023-02-07T01:07:48.882Z,81.23
2023-02-07T01:10:19.291Z,80.93
2023-02-07T01:12:49.080Z,80.73
2023-02-07T01:15:19.114Z,80.59
2023-02-07T01:17:49.500Z,81.29
2023-02-07T01:20:19.846Z,81.44
2023-02-07T01:22:50.921Z,82.13
2023-02-07T01:25:21.143Z,81.86
2023-02-07T01:27:51.296Z,81.88
2023-02-07T01:30:21.051Z,81.92
2023-02-07T01:32:51.213Z,81.93
2023-02-07T01:35:21.190Z,80.69
2023-02-07T01:37:51.332Z,81.46
2023-02-07T01:40:22.417Z,81.62
2023-02-07T01:42:52.496Z,81.52
2023-02-07T01:45:31.350Z,82.03
2023-02-07T01:48:04.775Z,81.54
2023-02-07T01:50:35.749Z,81.76
2023-02-07T01:53:07.438Z,81.82
2023-02-07T01:55:41.240Z,82.96
2023-02-07T01:58:13.015Z,81.91
2023-02-07T02:00:42.939Z,81.92
2023-02-07T02:03:12.809Z,81.43
2023-02-07T02:05:44.893Z,82.56
2023-02-07T02:08:16.494Z,82.21
2023-02-07T02:11:07.952Z,82.02
2023-02-07T02:13:50.103Z,81.45
2023-02-07T02:16:52.500Z,82.08
2023-02-07T02:19:52.634Z,81.62
2023-02-07T02:22:44.708Z,81.73
2023-02-07T02:25:19.814Z,82.25
2023-02-07T02:28:07.921Z,82.95
2023-02-07T02:30:49.563Z,82.45
2023-02-07T02:33:30.928Z,82.70
2023-02-07T02:36:34.760Z,82.31
2023-02-07T02:39:12.110Z,81.93
2023-02-07T02:41:57.288Z,81.54
2023-02-07T02:44:39.453Z,82.19
2023-02-07T02:47:12.114Z,82.31
2023-02-07T02:49:44.193Z,81.67
2023-02-07T02:52:14.092Z,81.41
2023-02-07T02:54:44.183Z,82.20
2023-02-07T02:57:36.557Z,82.11
2023-02-07T03:00:26.057Z,81.97
2023-02-07T03:03:18.801Z,81.97
2023-02-07T03:05:57.721Z,81.46
2023-02-07T03:08:30.945Z,82.34
2023-02-07T03:11:15.605Z,82.82
2023-02-07T03:14:01.307Z,83.27
2023-02-07T03:16:42.750Z,83.42
2023-02-07T03:19:16.015Z,82.53
2023-02-07T03:21:48.917Z,82.74
2023-02-07T03:24:34.515Z,82.75
2023-02-07T03:27:07.472Z,82.83
2023-02-07T03:29:40.366Z,82.43
2023-02-07T03:32:11.981Z,81.46
2023-02-07T03:35:13.214Z,81.45
2023-02-07T03:37:46.224Z,82.46
2023-02-07T03:40:16.938Z,83.03
2023-02-07T03:43:01.314Z,82.90
2023-02-07T03:45:31.500Z,82.45
2023-02-07T03:48:01.392Z,82.02
2023-02-07T03:50:31.165Z,82.24
2023-02-07T03:53:01.061Z,82.92
2023-02-07T03:55:32.199Z,83.08
2023-02-07T03:58:02.108Z,81.90
2023-02-07T04:00:31.913Z,82.80
2023-02-07T04:03:01.777Z,83.02
2023-02-07T04:05:31.631Z,83.02
2023-02-07T04:08:01.744Z,82.90
2023-02-07T04:10:31.539Z,83.29
2023-02-07T04:13:01.300Z,83.69
2023-02-07T04:15:31.265Z,83.37
2023-02-07T04:18:01.033Z,83.88
2023-02-07T04:20:30.796Z,83.46
2023-02-07T04:23:00.580Z,83.24
2023-02-07T04:25:30.444Z,82.85
2023-02-07T04:28:00.461Z,84.00
2023-02-07T04:30:31.820Z,82.72
2023-02-07T04:33:01.784Z,81.86
2023-02-07T04:35:31.607Z,83.40
2023-02-07T04:38:01.362Z,83.23
2023-02-07T04:40:31.130Z,82.69
2023-02-07T04:43:00.934Z,83.76
2023-02-07T04:45:30.875Z,83.62
2023-02-07T04:48:00.671Z,83.93
2023-02-07T04:50:30.536Z,84.66
2023-02-07T04:53:00.401Z,83.74
2023-02-07T04:55:30.512Z,84.21
2023-02-07T04:58:00.271Z,84.31
2023-02-07T05:00:29.753Z,84.31
2023-02-07T05:03:00.765Z,84.45
2023-02-07T05:05:30.716Z,84.28
2023-02-07T05:08:00.678Z,83.88
2023-02-07T05:10:30.357Z,84.42
2023-02-07T05:13:00.648Z,84.72
2023-02-07T05:15:30.687Z,84.15
2023-02-07T05:18:01.128Z,84.02
2023-02-07T05:20:31.046Z,84.79
2023-02-07T05:23:00.971Z,83.77
2023-02-07T05:25:30.826Z,83.95
2023-02-07T05:28:00.723Z,83.43
2023-02-07T05:30:30.431Z,82.91
2023-02-07T05:33:06.498Z,83.95
2023-02-07T05:35:36.629Z,83.34
2023-02-07T05:38:08.831Z,82.68
2023-02-07T05:40:40.339Z,83.99
2023-02-07T05:43:11.265Z,83.67
2023-02-07T05:45:41.777Z,82.71
2023-02-07T05:48:11.740Z,81.71
2023-02-07T05:50:41.690Z,83.59
2023-02-07T05:53:12.893Z,83.66
2023-02-07T05:55:43.109Z,84.10
2023-02-07T05:58:14.453Z,83.91
2023-02-07T06:00:44.405Z,83.03
2023-02-07T06:03:14.228Z,83.87
2023-02-07T06:05:44.090Z,84.25
2023-02-07T06:08:15.768Z,84.12
2023-02-07T06:10:46.011Z,84.27
2023-02-07T06:13:15.919Z,85.15
2023-02-07T06:15:47.299Z,84.86
2023-02-07T06:18:17.025Z,85.03
2023-02-07T06:20:46.889Z,85.41
2023-02-07T06:23:16.699Z,84.80
2023-02-07T06:25:47.333Z,85.16
2023-02-07T06:28:17.121Z,85.16
2023-02-07T06:30:47.107Z,85.31
2023-02-07T06:33:17.203Z,85.87
2023-02-07T06:35:47.504Z,85.29
2023-02-07T06:38:19.017Z,85.08
2023-02-07T06:40:49.865Z,84.99
2023-02-07T06:43:19.724Z,84.68
2023-02-07T06:45:49.597Z,84.17
2023-02-07T06:48:19.371Z,84.70
2023-02-07T06:50:52.011Z,84.96
2023-02-07T06:53:21.811Z,84.67
2023-02-07T06:55:51.853Z,83.79
2023-02-07T06:58:21.670Z,84.12
2023-02-07T07:00:51.203Z,84.24
2023-02-07T07:03:22.757Z,84.19
2023-02-07T07:05:52.564Z,83.17
2023-02-07T07:08:22.705Z,84.53
2023-02-07T07:10:52.590Z,84.66
2023-02-07T07:13:22.723Z,84.22
2023-02-07T07:15:52.858Z,84.43
2023-02-07T07:18:22.790Z,84.12
2023-02-07T07:20:57.304Z,84.84
2023-02-07T07:23:27.203Z,83.97
2023-02-07T07:25:56.980Z,84.94
2023-02-07T07:28:26.497Z,84.65
2023-02-07T07:30:56.377Z,85.38
2023-02-07T07:33:26.316Z,85.13
2023-02-07T07:35:58.491Z,85.44
2023-02-07T07:38:28.935Z,85.03
2023-02-07T07:40:58.924Z,84.96
2023-02-07T07:43:28.929Z,84.69
2023-02-07T07:46:02.673Z,84.49
2023-02-07T07:48:32.634Z,84.32
2023-02-07T07:51:02.819Z,85.05
2023-02-07T07:53:32.682Z,84.65
2023-02-07T07:56:02.577Z,85.06
2023-02-07T07:58:33.434Z,84.72
2023-02-07T08:01:03.377Z,84.45
2023-02-07T08:03:33.274Z,84.58
2023-02-07T08:06:03.116Z,83.39
2023-02-07T08:08:32.892Z,84.24
2023-02-07T08:11:08.999Z,84.56
2023-02-07T08:13:39.040Z,84.72
2023-02-07T08:16:10.987Z,84.44
2023-02-07T08:18:40.794Z,83.74
2023-02-07T08:21:11.612Z,83.74
2023-02-07T08:23:41.392Z,84.77
2023-02-07T08:26:11.902Z,84.79
2023-02-07T08:28:41.691Z,84.24
2023-02-07T08:31:12.302Z,84.14
2023-02-07T08:33:41.970Z,83.37
2023-02-07T08:36:12.032Z,83.80
2023-02-07T08:38:41.801Z,83.41
2023-02-07T08:41:11.578Z,82.72
2023-02-07T08:43:41.909Z,82.71
2023-02-07T08:46:11.947Z,82.56
2023-02-07T08:48:41.809Z,80.69
2023-02-07T08:51:12.230Z,80.69
2023-02-07T08:53:42.018Z,81.53
2023-02-07T08:56:11.841Z,81.49
2023-02-07T08:58:41.681Z,82.10
2023-02-07T09:01:11.619Z,82.52
2023-02-07T09:03:41.927Z,82.60
2023-02-07T09:06:11.906Z,81.19
2023-02-07T09:08:41.827Z,81.26
2023-02-07T09:11:11.808Z,80.86
2023-02-07T09:13:42.281Z,81.26
2023-02-07T09:16:14.177Z,80.11
2023-02-07T09:18:44.043Z,79.89
2023-02-07T09:21:13.791Z,78.62
2023-02-07T09:23:43.645Z,78.16
2023-02-07T09:26:19.207Z,77.81
2023-02-07T09:28:49.878Z,79.08
2023-02-07T09:31:21.648Z,79.99
2023-02-07T09:33:51.664Z,80.17
2023-02-07T09:36:24.599Z,78.86
2023-02-07T09:38:55.698Z,78.07
2023-02-07T09:41:43.408Z,77.00
2023-02-07T09:44:26.139Z,75.22
2023-02-07T09:47:05.555Z,75.63
2023-02-07T09:49:38.504Z,74.56
2023-02-07T09:52:13.084Z,74.39
2023-02-07T09:54:46.076Z,73.98
2023-02-07T09:57:18.927Z,74.12
2023-02-07T09:59:54.698Z,72.96
2023-02-07T10:02:38.942Z,74.24
2023-02-07T10:05:14.278Z,73.09
2023-02-07T10:07:45.988Z,72.91
2023-02-07T10:10:17.884Z,73.26
2023-02-07T10:13:05.822Z,71.19
2023-02-07T10:16:00.281Z,70.81
2023-02-07T10:18:35.630Z,70.00
2023-02-07T10:21:42.193Z,72.38
2023-02-07T10:24:28.257Z,68.83
2023-02-07T10:27:12.061Z,70.21
2023-02-07T10:29:53.830Z,68.48
2023-02-07T10:32:26.435Z,67.74
2023-02-07T10:34:59.750Z,68.66
2023-02-07T10:40:21.673Z,65.31
2023-02-07T10:43:03.100Z,64.77
2023-02-07T10:45:33.074Z,64.25
2023-02-07T10:48:03.595Z,66.03
2023-02-07T10:50:33.482Z,65.27
2023-02-07T10:53:03.383Z,64.68
2023-02-07T10:55:46.047Z,63.24
2023-02-07T10:58:23.593Z,63.24
2023-02-07T11:00:57.054Z,65.71
2023-02-07T11:03:27.779Z,62.31
2023-02-07T11:06:04.376Z,62.54
2023-02-07T11:08:38.144Z,62.30
2023-02-07T11:11:27.171Z,63.33
2023-02-07T11:13:58.431Z,61.14
2023-02-07T11:16:27.989Z,62.51
2023-02-07T11:19:00.705Z,63.81
2023-02-07T11:21:41.733Z,60.81
2023-02-07T11:24:21.402Z,61.16
2023-02-07T11:26:59.757Z,60.43
2023-02-07T11:29:32.407Z,60.42
2023-02-07T11:32:04.363Z,60.56
2023-02-07T11:34:40.062Z,60.41
2023-02-07T11:37:12.921Z,61.68
2023-02-07T11:39:43.965Z,60.05
2023-02-07T11:42:22.312Z,59.65
2023-02-07T11:44:53.404Z,59.72
2023-02-07T11:47:28.949Z,60.44
2023-02-07T11:50:04.404Z,58.27
2023-02-07T11:52:36.299Z,58.27
2023-02-07T11:55:10.241Z,58.67
2023-02-07T11:57:40.548Z,58.39
2023-02-07T12:00:29.772Z,58.47
2023-02-07T12:03:09.602Z,59.69
2023-02-07T12:05:42.425Z,59.15
2023-02-07T12:08:24.152Z,58.30
2023-02-07T12:11:22.514Z,56.63
2023-02-07T12:13:55.339Z,59.43
2023-02-07T12:16:39.800Z,59.35
2023-02-07T12:19:15.834Z,56.55
2023-02-07T12:21:57.622Z,56.62
2023-02-07T12:24:41.899Z,57.79
2023-02-07T12:27:17.141Z,57.52
2023-02-07T12:30:01.778Z,58.24
2023-02-07T12:32:55.455Z,57.06
2023-02-07T12:35:56.957Z,54.02
2023-02-07T12:38:20.690Z,54.02
2023-02-07T12:40:57.105Z,53.65
2023-02-07T12:43:33.086Z,53.65
2023-02-07T12:46:08.792Z,55.49
2023-02-07T12:48:57.205Z,53.25
2023-02-07T12:51:36.087Z,54.00
2023-02-07T12:54:19.887Z,53.33
2023-02-07T12:56:56.153Z,53.33
2023-02-07T12:59:41.111Z,53.85
2023-02-07T13:02:20.627Z,55.18
2023-02-07T13:05:20.628Z,53.69
2023-02-07T13:08:11.793Z,52.58
2023-02-07T13:10:50.303Z,52.22
2023-02-07T13:13:27.859Z,52.14
2023-02-07T13:16:03.683Z,53.44
2023-02-07T13:18:36.205Z,53.48
2023-02-07T13:21:26.749Z,54.14
2023-02-07T13:23:59.536Z,52.42
2023-02-07T13:26:31.578Z,53.57
2023-02-07T13:29:07.956Z,54.73
2023-02-07T13:31:40.680Z,53.29
2023-02-07T13:34:30.749Z,52.36
2023-02-07T13:37:11.420Z,53.09
2023-02-07T13:39:41.454Z,54.10
2023-02-07T13:42:20.213Z,52.89
2023-02-07T13:45:13.847Z,51.85
2023-02-07T13:47:46.723Z,51.50
2023-02-07T13:50:31.129Z,52.96
2023-02-07T13:53:21.748Z,52.02
2023-02-07T13:55:52.357Z,51.96
2023-02-07T13:58:57.328Z,52.30
2023-02-07T14:01:31.552Z,50.25
2023-02-07T14:04:07.619Z,49.56
2023-02-07T14:06:37.895Z,49.89
2023-02-07T14:09:10.935Z,49.53
2023-02-07T14:11:47.211Z,47.12
2023-02-07T14:14:19.717Z,47.12
2023-02-07T14:16:52.633Z,47.30
2023-02-07T14:19:45.514Z,48.02
2023-02-07T14:22:23.660Z,47.88
2023-02-07T14:25:08.684Z,47.29
2023-02-07T14:27:56.217Z,47.72
2023-02-07T14:30:31.820Z,49.02
2023-02-07T14:33:21.729Z,48.27
2023-02-07T14:36:16.847Z,48.78
2023-02-07T14:39:09.008Z,46.97
2023-02-07T14:41:41.500Z,49.40
2023-02-07T14:44:26.742Z,47.82
2023-02-07T14:46:59.346Z,47.64
2023-02-07T14:49:32.277Z,46.92
2023-02-07T14:52:13.817Z,50.17
2023-02-07T14:55:03.385Z,47.58
2023-02-07T14:57:57.208Z,47.32
2023-02-07T15:00:35.451Z,48.89
2023-02-07T15:03:14.221Z,47.57
2023-02-07T15:05:52.884Z,47.53
2023-02-07T15:08:25.157Z,45.92
2023-02-07T15:11:00.715Z,43.67
2023-02-07T15:13:39.233Z,41.66
2023-02-07T15:16:18.061Z,41.66
2023-02-07T15:19:02.733Z,40.28
2023-02-07T15:21:45.537Z,41.38
2023-02-07T15:24:18.092Z,43.35
2023-02-07T15:26:53.609Z,46.57
2023-02-07T15:29:27.004Z,47.66
2023-02-07T15:31:57.613Z,45.99
2023-02-07T15:34:31.749Z,46.55
2023-02-07T15:37:03.822Z,46.61
2023-02-07T15:39:33.698Z,48.40
2023-02-07T15:42:03.717Z,47.87
2023-02-07T15:44:35.727Z,47.79
2023-02-07T15:47:07.260Z,48.57
2023-02-07T15:49:42.348Z,48.50
2023-02-07T15:52:32.942Z,48.58
2023-02-07T15:55:06.026Z,48.88
2023-02-07T15:57:38.655Z,49.28
2023-02-07T16:00:23.933Z,49.90
2023-02-07T16:02:59.582Z,50.15
2023-02-07T16:05:37.912Z,50.21
2023-02-07T16:08:37.466Z,50.96
2023-02-07T16:11:25.352Z,51.61
2023-02-07T16:13:58.172Z,53.32
2023-02-07T16:16:30.691Z,52.56
2023-02-07T16:19:29.766Z,53.11
2023-02-07T16:22:06.938Z,55.19
2023-02-07T16:24:39.948Z,52.96
2023-02-07T16:27:18.603Z,53.90
2023-02-07T16:29:49.405Z,53.86
2023-02-07T16:32:19.206Z,55.27
2023-02-07T16:34:59.256Z,54.14
2023-02-07T16:37:20.592Z,54.78
2023-02-07T16:39:50.682Z,55.55
2023-02-07T16:42:20.149Z,57.71
2023-02-07T16:44:50.053Z,57.86
2023-02-07T16:47:20.122Z,58.29
2023-02-07T16:49:49.923Z,59.25
2023-02-07T16:52:19.467Z,60.15
2023-02-07T16:54:49.319Z,60.10
2023-02-07T16:57:19.459Z,60.76
2023-02-07T16:59:49.314Z,60.50
2023-02-07T17:02:20.416Z,60.87
2023-02-07T17:04:50.185Z,61.17
2023-02-07T17:07:20.009Z,62.00
2023-02-07T17:09:50.364Z,61.82
2023-02-07T17:12:20.186Z,63.29
2023-02-07T17:14:50.046Z,63.29
2023-02-07T17:17:19.922Z,62.76
2023-02-07T17:19:51.265Z,63.79
2023-02-07T17:22:21.122Z,64.25
2023-02-07T17:24:50.944Z,64.86
2023-02-07T17:27:20.786Z,65.15
2023-02-07T17:29:50.523Z,64.20
2023-02-07T17:32:20.299Z,66.11
2023-02-07T17:34:50.106Z,66.13
2023-02-07T17:37:20.858Z,65.76
2023-02-07T17:39:50.615Z,65.13
2023-02-07T17:42:20.221Z,65.50
2023-02-07T17:44:50.018Z,65.88
2023-02-07T17:47:19.798Z,65.42
2023-02-07T17:49:49.607Z,66.01
2023-02-07T17:52:19.333Z,67.25
2023-02-07T17:54:49.367Z,68.31
2023-02-07T17:57:19.309Z,68.58
2023-02-07T17:59:49.230Z,67.02
2023-02-07T18:02:19.083Z,67.78
2023-02-07T18:04:50.569Z,68.50
2023-02-07T18:07:22.249Z,69.10
2023-02-07T18:09:52.006Z,69.87
2023-02-07T18:12:21.916Z,69.51
2023-02-07T18:14:52.430Z,68.50
2023-02-07T18:17:22.603Z,68.18
2023-02-07T18:19:53.154Z,69.90
2023-02-07T18:22:23.152Z,69.26
2023-02-07T18:24:52.941Z,70.12
2023-02-07T18:27:22.829Z,70.12
2023-02-07T18:29:52.641Z,69.50
2023-02-07T18:32:22.403Z,69.77
2023-02-07T18:34:52.231Z,70.26
2023-02-07T18:37:22.445Z,71.00
2023-02-07T18:39:52.372Z,71.24
2023-02-07T18:42:25.133Z,71.26
2023-02-07T18:44:55.060Z,71.26
2023-02-07T18:47:25.149Z,70.82
2023-02-07T18:49:54.979Z,69.71
2023-02-07T18:52:24.513Z,69.87
2023-02-07T18:54:54.321Z,70.11
2023-02-07T18:57:24.089Z,70.88
2023-02-07T18:59:53.952Z,70.88
2023-02-07T19:02:23.686Z,71.09
2023-02-07T19:04:53.211Z,71.11
2023-02-07T19:07:23.026Z,71.23
2023-02-07T19:09:52.800Z,71.19
2023-02-07T19:12:22.662Z,71.08
2023-02-07T19:14:52.610Z,71.48
2023-02-07T19:17:25.078Z,72.01
2023-02-07T19:19:54.202Z,72.18
2023-02-07T19:22:35.033Z,72.00
2023-02-07T19:24:56.235Z,72.00
2023-02-07T19:27:26.068Z,72.16
2023-02-07T19:29:55.966Z,71.96
2023-02-07T19:32:25.660Z,71.75
2023-02-07T19:34:55.190Z,72.00
2023-02-07T19:37:27.737Z,72.24
2023-02-07T19:39:57.212Z,71.98
2023-02-07T19:42:26.821Z,71.50
2023-02-07T19:44:56.573Z,72.28
2023-02-07T19:47:28.116Z,72.28
2023-02-07T19:49:57.960Z,72.55
2023-02-07T19:52:28.848Z,72.17
2023-02-07T19:54:58.588Z,72.25
2023-02-07T19:57:28.757Z,72.62
2023-02-07T19:59:58.841Z,72.49
2023-02-07T20:02:28.978Z,72.39
2023-02-07T20:04:58.827Z,72.56
2023-02-07T20:07:28.650Z,72.21
2023-02-07T20:09:58.549Z,72.78
2023-02-07T20:12:28.010Z,72.69
2023-02-07T20:14:57.923Z,72.13
2023-02-07T20:17:28.052Z,73.02
2023-02-07T20:19:57.817Z,73.04
2023-02-07T20:22:27.762Z,73.24
2023-02-07T20:24:57.910Z,73.18
2023-02-07T20:27:28.234Z,72.62
2023-02-07T20:29:58.080Z,72.45
2023-02-07T20:32:28.020Z,73.10
2023-02-07T20:34:57.813Z,74.09
2023-02-07T20:37:27.323Z,74.23
2023-02-07T20:39:57.073Z,74.02
2023-02-07T20:42:26.616Z,73.41
2023-02-07T20:44:58.314Z,73.61
2023-02-07T20:47:28.079Z,73.28
2023-02-07T20:49:58.084Z,73.87
2023-02-07T20:52:27.976Z,74.34
2023-02-07T20:54:57.887Z,74.31
2023-02-07T20:57:27.674Z,74.37
2023-02-07T20:59:57.485Z,73.95
2023-02-07T21:02:26.958Z,73.95
2023-02-07T21:04:56.802Z,73.42
2023-02-07T21:07:26.692Z,73.99
2023-02-07T21:09:56.658Z,74.64
2023-02-07T21:12:26.586Z,73.77
2023-02-07T21:14:57.342Z,73.84
2023-02-07T21:17:27.176Z,74.98
2023-02-07T21:19:56.937Z,73.90
2023-02-07T21:22:26.769Z,74.42
2023-02-07T21:24:56.895Z,74.24
2023-02-07T21:27:27.033Z,75.10
2023-02-07T21:29:56.818Z,75.30
2023-02-07T21:32:26.322Z,74.50
2023-02-07T21:34:56.120Z,74.72
2023-02-07T21:37:25.896Z,74.38
2023-02-07T21:39:55.860Z,74.59
2023-02-07T21:42:25.639Z,75.56
2023-02-07T21:44:55.146Z,75.22
2023-02-07T21:47:24.926Z,75.26
2023-02-07T21:49:54.759Z,75.13
2023-02-07T21:52:24.385Z,75.04
2023-02-07T21:54:54.199Z,75.02
2023-02-07T21:57:24.028Z,74.67
2023-02-07T21:59:54.843Z,75.16
2023-02-07T22:02:24.397Z,75.38
2023-02-07T22:04:54.279Z,75.49
2023-02-07T22:07:24.612Z,74.89
2023-02-07T22:09:54.516Z,74.81
2023-02-07T22:12:24.246Z,74.36
2023-02-07T22:14:54.119Z,75.65
2023-02-07T22:17:24.020Z,75.15
2023-02-07T22:19:53.835Z,74.61
2023-02-07T22:22:26.274Z,74.98
2023-02-07T22:24:56.065Z,76.44
2023-02-07T22:27:25.875Z,76.07
2023-02-07T22:29:55.691Z,76.15
2023-02-07T22:32:25.467Z,75.29
2023-02-07T22:34:55.242Z,75.58
2023-02-07T22:37:25.049Z,75.52
2023-02-07T22:39:54.813Z,75.68
2023-02-07T22:42:24.375Z,76.17
2023-02-07T22:44:54.113Z,75.28
2023-02-07T22:47:23.925Z,75.08
2023-02-07T22:49:53.755Z,76.01
2023-02-07T22:52:23.278Z,75.75
2023-02-07T22:54:53.029Z,75.80
2023-02-07T22:57:22.839Z,76.26
2023-02-07T22:59:52.587Z,76.53
2023-02-07T23:02:22.521Z,75.44
2023-02-07T23:04:52.481Z,75.04
2023-02-07T23:07:22.616Z,74.77
2023-02-07T23:09:54.308Z,76.03
2023-02-07T23:12:24.348Z,75.77
2023-02-07T23:14:54.264Z,76.18
2023-02-07T23:17:24.056Z,76.27
2023-02-07T23:19:54.364Z,76.32
2023-02-07T23:22:24.168Z,76.41
2023-02-07T23:24:56.099Z,76.17
2023-02-07T23:27:25.856Z,76.17
2023-02-07T23:29:55.844Z,75.80
2023-02-07T23:32:25.619Z,75.80
2023-02-07T23:34:55.750Z,75.61
2023-02-07T23:37:25.524Z,75.58
2023-02-07T23:39:55.628Z,76.08
2023-02-07T23:42:25.448Z,76.05
2023-02-07T23:44:55.375Z,75.95
2023-02-07T23:47:25.136Z,75.74
2023-02-07T23:49:54.922Z,76.34
2023-02-07T23:52:25.928Z,76.07
2023-02-07T23:54:55.789Z,76.37
2023-02-07T23:57:25.616Z,76.41
2023-02-07T23:59:55.734Z,76.45
